sensor_id;sensor_type;location;lat;lon;timestamp;P1;durP1;ratioP1;P2;durP2;ratioP2
84307;SDS011;74486;52.070;5.128;2024-01-07T00:01:54;11.80;;;6.32;;
84307;SDS011;74486;52.070;5.128;2024-01-07T00:04:20;12.93;;;7.88;;
84307;SDS011;74486;52.070;5.128;2024-01-07T00:06:46;12.88;;;7.13;;
84307;SDS011;74486;52.070;5.128;2024-01-07T00:09:12;11.98;;;6.85;;
84307;SDS011;74486;52.070;5.128;2024-01-07T00:11:38;15.15;;;8.93;;
84307;SDS011;74486;52.070;5.128;2024-01-07T00:14:04;13.73;;;8.30;;
84307;SDS011;74486;52.070;5.128;2024-01-07T00:16:29;14.35;;;8.18;;
84307;SDS011;74486;52.070;5.128;2024-01-07T00:18:55;11.48;;;6.40;;
84307;SDS011;74486;52.070;5.128;2024-01-07T00:21:23;15.02;;;7.65;;
84307;SDS011;74486;52.070;5.128;2024-01-07T00:23:50;12.35;;;7.00;;
84307;SDS011;74486;52.070;5.128;2024-01-07T00:26:16;14.63;;;7.70;;
84307;SDS011;74486;52.070;5.128;2024-01-07T00:28:43;16.17;;;7.50;;
84307;SDS011;74486;52.070;5.128;2024-01-07T00:31:08;16.88;;;7.97;;
84307;SDS011;74486;52.070;5.128;2024-01-07T00:33:36;15.25;;;8.70;;
84307;SDS011;74486;52.070;5.128;2024-01-07T00:36:02;17.13;;;9.05;;
84307;SDS011;74486;52.070;5.128;2024-01-07T00:38:27;15.93;;;8.00;;
84307;SDS011;74486;52.070;5.128;2024-01-07T00:40:53;15.75;;;8.93;;
84307;SDS011;74486;52.070;5.128;2024-01-07T00:43:18;15.60;;;8.80;;
84307;SDS011;74486;52.070;5.128;2024-01-07T00:45:45;14.82;;;8.27;;
84307;SDS011;74486;52.070;5.128;2024-01-07T00:48:10;16.50;;;8.77;;
84307;SDS011;74486;52.070;5.128;2024-01-07T00:50:36;19.70;;;9.07;;
84307;SDS011;74486;52.070;5.128;2024-01-07T00:53:01;18.15;;;8.75;;
84307;SDS011;74486;52.070;5.128;2024-01-07T00:55:27;18.85;;;9.32;;
84307;SDS011;74486;52.070;5.128;2024-01-07T00:57:53;19.05;;;9.48;;
84307;SDS011;74486;52.070;5.128;2024-01-07T01:00:20;17.58;;;8.88;;
84307;SDS011;74486;52.070;5.128;2024-01-07T01:02:47;18.25;;;9.65;;
84307;SDS011;74486;52.070;5.128;2024-01-07T01:05:13;17.58;;;9.40;;
84307;SDS011;74486;52.070;5.128;2024-01-07T01:07:38;19.88;;;9.32;;
84307;SDS011;74486;52.070;5.128;2024-01-07T01:10:04;18.75;;;9.88;;
84307;SDS011;74486;52.070;5.128;2024-01-07T01:12:30;19.33;;;10.65;;
84307;SDS011;74486;52.070;5.128;2024-01-07T01:14:56;20.45;;;9.13;;
84307;SDS011;74486;52.070;5.128;2024-01-07T01:17:21;20.02;;;9.35;;
84307;SDS011;74486;52.070;5.128;2024-01-07T01:19:48;18.75;;;9.10;;
84307;SDS011;74486;52.070;5.128;2024-01-07T01:22:13;18.85;;;9.23;;
84307;SDS011;74486;52.070;5.128;2024-01-07T01:24:39;18.10;;;8.93;;
84307;SDS011;74486;52.070;5.128;2024-01-07T01:27:04;18.02;;;9.15;;
84307;SDS011;74486;52.070;5.128;2024-01-07T01:29:30;19.58;;;10.02;;
84307;SDS011;74486;52.070;5.128;2024-01-07T01:31:55;15.70;;;8.90;;
84307;SDS011;74486;52.070;5.128;2024-01-07T01:34:21;16.48;;;9.13;;
84307;SDS011;74486;52.070;5.128;2024-01-07T01:36:48;16.58;;;9.05;;
84307;SDS011;74486;52.070;5.128;2024-01-07T01:39:13;16.15;;;8.23;;
84307;SDS011;74486;52.070;5.128;2024-01-07T01:41:39;18.13;;;9.05;;
84307;SDS011;74486;52.070;5.128;2024-01-07T01:44:05;16.58;;;9.55;;
84307;SDS011;74486;52.070;5.128;2024-01-07T01:46:30;14.50;;;8.20;;
84307;SDS011;74486;52.070;5.128;2024-01-07T01:48:56;17.23;;;9.07;;
84307;SDS011;74486;52.070;5.128;2024-01-07T01:51:23;19.60;;;10.13;;
84307;SDS011;74486;52.070;5.128;2024-01-07T01:53:50;16.27;;;9.98;;
84307;SDS011;74486;52.070;5.128;2024-01-07T01:56:16;17.10;;;9.00;;
84307;SDS011;74486;52.070;5.128;2024-01-07T01:58:43;17.77;;;10.75;;
84307;SDS011;74486;52.070;5.128;2024-01-07T02:01:09;15.70;;;8.07;;
84307;SDS011;74486;52.070;5.128;2024-01-07T02:03:35;16.17;;;8.25;;
84307;SDS011;74486;52.070;5.128;2024-01-07T02:06:00;15.32;;;8.77;;
84307;SDS011;74486;52.070;5.128;2024-01-07T02:08:26;20.10;;;8.10;;
84307;SDS011;74486;52.070;5.128;2024-01-07T02:10:53;18.95;;;8.85;;
84307;SDS011;74486;52.070;5.128;2024-01-07T02:13:19;16.55;;;8.65;;
84307;SDS011;74486;52.070;5.128;2024-01-07T02:15:44;17.60;;;9.00;;
84307;SDS011;74486;52.070;5.128;2024-01-07T02:18:09;13.20;;;8.20;;
84307;SDS011;74486;52.070;5.128;2024-01-07T02:20:35;18.75;;;7.88;;
84307;SDS011;74486;52.070;5.128;2024-01-07T02:23:00;16.63;;;8.77;;
84307;SDS011;74486;52.070;5.128;2024-01-07T02:25:27;19.35;;;9.35;;
84307;SDS011;74486;52.070;5.128;2024-01-07T02:27:53;19.25;;;9.88;;
84307;SDS011;74486;52.070;5.128;2024-01-07T02:30:18;15.93;;;8.40;;
84307;SDS011;74486;52.070;5.128;2024-01-07T02:32:44;19.13;;;9.68;;
84307;SDS011;74486;52.070;5.128;2024-01-07T02:35:09;16.63;;;9.13;;
84307;SDS011;74486;52.070;5.128;2024-01-07T02:37:35;19.17;;;9.52;;
84307;SDS011;74486;52.070;5.128;2024-01-07T02:40:00;17.38;;;7.93;;
84307;SDS011;74486;52.070;5.128;2024-01-07T02:42:27;17.65;;;8.40;;
84307;SDS011;74486;52.070;5.128;2024-01-07T02:44:52;20.15;;;9.27;;
84307;SDS011;74486;52.070;5.128;2024-01-07T02:47:18;22.40;;;9.95;;
84307;SDS011;74486;52.070;5.128;2024-01-07T02:49:43;25.20;;;10.50;;
84307;SDS011;74486;52.070;5.128;2024-01-07T02:52:09;21.33;;;10.75;;
84307;SDS011;74486;52.070;5.128;2024-01-07T02:54:34;21.40;;;9.70;;
84307;SDS011;74486;52.070;5.128;2024-01-07T02:57:00;22.55;;;10.55;;
84307;SDS011;74486;52.070;5.128;2024-01-07T02:59:27;26.58;;;11.30;;
84307;SDS011;74486;52.070;5.128;2024-01-07T03:01:52;20.42;;;9.73;;
84307;SDS011;74486;52.070;5.128;2024-01-07T03:04:18;22.30;;;10.35;;
84307;SDS011;74486;52.070;5.128;2024-01-07T03:06:43;20.63;;;10.05;;
84307;SDS011;74486;52.070;5.128;2024-01-07T03:09:08;25.73;;;12.02;;
84307;SDS011;74486;52.070;5.128;2024-01-07T03:11:34;21.45;;;10.05;;
84307;SDS011;74486;52.070;5.128;2024-01-07T03:14:04;21.13;;;10.18;;
84307;SDS011;74486;52.070;5.128;2024-01-07T03:16:31;22.98;;;10.15;;
84307;SDS011;74486;52.070;5.128;2024-01-07T03:18:56;24.98;;;10.95;;
84307;SDS011;74486;52.070;5.128;2024-01-07T03:21:22;24.45;;;11.63;;
84307;SDS011;74486;52.070;5.128;2024-01-07T03:23:49;23.05;;;11.60;;
84307;SDS011;74486;52.070;5.128;2024-01-07T03:26:15;19.42;;;10.18;;
84307;SDS011;74486;52.070;5.128;2024-01-07T03:28:42;25.75;;;11.43;;
84307;SDS011;74486;52.070;5.128;2024-01-07T03:31:08;20.63;;;11.20;;
84307;SDS011;74486;52.070;5.128;2024-01-07T03:33:37;21.35;;;11.68;;
84307;SDS011;74486;52.070;5.128;2024-01-07T03:36:06;25.15;;;10.98;;
84307;SDS011;74486;52.070;5.128;2024-01-07T03:38:32;19.15;;;9.95;;
84307;SDS011;74486;52.070;5.128;2024-01-07T03:40:57;19.92;;;9.63;;
84307;SDS011;74486;52.070;5.128;2024-01-07T03:43:23;20.85;;;10.30;;
84307;SDS011;74486;52.070;5.128;2024-01-07T03:45:48;20.10;;;10.70;;
84307;SDS011;74486;52.070;5.128;2024-01-07T03:48:13;24.42;;;11.45;;
84307;SDS011;74486;52.070;5.128;2024-01-07T03:50:40;18.65;;;9.93;;
84307;SDS011;74486;52.070;5.128;2024-01-07T03:53:06;20.83;;;9.57;;
84307;SDS011;74486;52.070;5.128;2024-01-07T03:55:31;21.80;;;10.85;;
84307;SDS011;74486;52.070;5.128;2024-01-07T03:57:57;22.83;;;10.93;;
84307;SDS011;74486;52.070;5.128;2024-01-07T04:00:22;19.80;;;9.65;;
84307;SDS011;74486;52.070;5.128;2024-01-07T04:02:48;18.38;;;9.77;;
84307;SDS011;74486;52.070;5.128;2024-01-07T04:05:13;21.85;;;11.40;;
84307;SDS011;74486;52.070;5.128;2024-01-07T04:07:40;22.20;;;10.40;;
84307;SDS011;74486;52.070;5.128;2024-01-07T04:10:06;22.25;;;10.07;;
84307;SDS011;74486;52.070;5.128;2024-01-07T04:12:32;20.73;;;9.80;;
84307;SDS011;74486;52.070;5.128;2024-01-07T04:14:57;23.75;;;11.07;;
84307;SDS011;74486;52.070;5.128;2024-01-07T04:17:23;24.67;;;11.32;;
84307;SDS011;74486;52.070;5.128;2024-01-07T04:19:48;19.73;;;9.43;;
84307;SDS011;74486;52.070;5.128;2024-01-07T04:22:14;21.50;;;10.88;;
84307;SDS011;74486;52.070;5.128;2024-01-07T04:24:41;24.75;;;11.00;;
84307;SDS011;74486;52.070;5.128;2024-01-07T04:27:07;26.60;;;11.48;;
84307;SDS011;74486;52.070;5.128;2024-01-07T04:29:32;22.60;;;11.15;;
84307;SDS011;74486;52.070;5.128;2024-01-07T04:31:58;24.27;;;12.07;;
84307;SDS011;74486;52.070;5.128;2024-01-07T04:34:23;24.60;;;11.45;;
84307;SDS011;74486;52.070;5.128;2024-01-07T04:36:48;25.25;;;11.68;;
84307;SDS011;74486;52.070;5.128;2024-01-07T04:39:14;22.77;;;10.95;;
84307;SDS011;74486;52.070;5.128;2024-01-07T04:41:41;24.08;;;12.23;;
84307;SDS011;74486;52.070;5.128;2024-01-07T04:44:06;24.35;;;11.70;;
84307;SDS011;74486;52.070;5.128;2024-01-07T04:46:33;28.30;;;11.98;;
84307;SDS011;74486;52.070;5.128;2024-01-07T04:48:59;25.60;;;11.38;;
84307;SDS011;74486;52.070;5.128;2024-01-07T04:51:24;26.35;;;11.65;;
84307;SDS011;74486;52.070;5.128;2024-01-07T04:53:50;24.73;;;12.30;;
84307;SDS011;74486;52.070;5.128;2024-01-07T04:56:15;26.50;;;11.05;;
84307;SDS011;74486;52.070;5.128;2024-01-07T04:58:42;25.58;;;12.55;;
84307;SDS011;74486;52.070;5.128;2024-01-07T05:01:08;22.65;;;10.57;;
84307;SDS011;74486;52.070;5.128;2024-01-07T05:03:33;27.17;;;12.30;;
84307;SDS011;74486;52.070;5.128;2024-01-07T05:05:59;24.15;;;11.85;;
84307;SDS011;74486;52.070;5.128;2024-01-07T05:08:24;25.95;;;12.55;;
84307;SDS011;74486;52.070;5.128;2024-01-07T05:10:49;21.35;;;10.23;;
84307;SDS011;74486;52.070;5.128;2024-01-07T05:13:15;22.52;;;10.77;;
84307;SDS011;74486;52.070;5.128;2024-01-07T05:15:42;19.48;;;11.18;;
84307;SDS011;74486;52.070;5.128;2024-01-07T05:18:07;22.65;;;10.35;;
84307;SDS011;74486;52.070;5.128;2024-01-07T05:20:33;18.83;;;9.35;;
84307;SDS011;74486;52.070;5.128;2024-01-07T05:22:58;17.23;;;9.75;;
84307;SDS011;74486;52.070;5.128;2024-01-07T05:25:23;21.15;;;9.35;;
84307;SDS011;74486;52.070;5.128;2024-01-07T05:27:49;19.50;;;8.85;;
84307;SDS011;74486;52.070;5.128;2024-01-07T05:30:14;20.70;;;9.38;;
84307;SDS011;74486;52.070;5.128;2024-01-07T05:32:41;20.65;;;9.90;;
84307;SDS011;74486;52.070;5.128;2024-01-07T05:35:07;22.98;;;9.60;;
84307;SDS011;74486;52.070;5.128;2024-01-07T05:37:32;17.83;;;9.63;;
84307;SDS011;74486;52.070;5.128;2024-01-07T05:39:58;21.88;;;8.95;;
84307;SDS011;74486;52.070;5.128;2024-01-07T05:42:23;22.05;;;10.32;;
84307;SDS011;74486;52.070;5.128;2024-01-07T05:44:49;17.15;;;8.55;;
84307;SDS011;74486;52.070;5.128;2024-01-07T05:47:14;17.10;;;9.30;;
84307;SDS011;74486;52.070;5.128;2024-01-07T05:49:41;16.30;;;8.85;;
84307;SDS011;74486;52.070;5.128;2024-01-07T05:52:06;19.92;;;9.63;;
84307;SDS011;74486;52.070;5.128;2024-01-07T05:54:32;17.95;;;8.60;;
84307;SDS011;74486;52.070;5.128;2024-01-07T05:56:57;18.45;;;9.00;;
84307;SDS011;74486;52.070;5.128;2024-01-07T05:59:23;18.00;;;8.70;;
84307;SDS011;74486;52.070;5.128;2024-01-07T06:01:48;16.90;;;8.57;;
84307;SDS011;74486;52.070;5.128;2024-01-07T06:04:13;19.02;;;10.05;;
84307;SDS011;74486;52.070;5.128;2024-01-07T06:06:40;19.55;;;9.25;;
84307;SDS011;74486;52.070;5.128;2024-01-07T06:09:06;18.55;;;8.85;;
84307;SDS011;74486;52.070;5.128;2024-01-07T06:11:31;17.15;;;8.75;;
84307;SDS011;74486;52.070;5.128;2024-01-07T06:13:56;16.33;;;8.15;;
84307;SDS011;74486;52.070;5.128;2024-01-07T06:16:22;17.55;;;8.75;;
84307;SDS011;74486;52.070;5.128;2024-01-07T06:18:47;16.58;;;8.82;;
84307;SDS011;74486;52.070;5.128;2024-01-07T06:21:13;16.88;;;8.57;;
84307;SDS011;74486;52.070;5.128;2024-01-07T06:23:39;19.88;;;9.55;;
84307;SDS011;74486;52.070;5.128;2024-01-07T06:26:05;18.05;;;9.25;;
84307;SDS011;74486;52.070;5.128;2024-01-07T06:28:31;15.40;;;8.82;;
84307;SDS011;74486;52.070;5.128;2024-01-07T06:30:56;18.05;;;8.90;;
84307;SDS011;74486;52.070;5.128;2024-01-07T06:33:22;19.38;;;10.05;;
84307;SDS011;74486;52.070;5.128;2024-01-07T06:35:47;16.85;;;8.38;;
84307;SDS011;74486;52.070;5.128;2024-01-07T06:38:13;20.17;;;8.93;;
84307;SDS011;74486;52.070;5.128;2024-01-07T06:40:39;16.85;;;8.70;;
84307;SDS011;74486;52.070;5.128;2024-01-07T06:43:05;18.80;;;9.80;;
84307;SDS011;74486;52.070;5.128;2024-01-07T06:45:30;18.65;;;9.18;;
84307;SDS011;74486;52.070;5.128;2024-01-07T06:47:56;19.40;;;9.20;;
84307;SDS011;74486;52.070;5.128;2024-01-07T06:50:21;18.90;;;9.10;;
84307;SDS011;74486;52.070;5.128;2024-01-07T06:52:47;17.48;;;9.00;;
84307;SDS011;74486;52.070;5.128;2024-01-07T06:55:12;15.63;;;8.18;;
84307;SDS011;74486;52.070;5.128;2024-01-07T06:57:39;15.27;;;8.32;;
84307;SDS011;74486;52.070;5.128;2024-01-07T07:00:05;13.68;;;7.82;;
84307;SDS011;74486;52.070;5.128;2024-01-07T07:02:31;14.75;;;7.95;;
84307;SDS011;74486;52.070;5.128;2024-01-07T07:04:57;15.90;;;9.02;;
84307;SDS011;74486;52.070;5.128;2024-01-07T07:07:24;14.52;;;8.93;;
84307;SDS011;74486;52.070;5.128;2024-01-07T07:09:49;16.88;;;8.60;;
84307;SDS011;74486;52.070;5.128;2024-01-07T07:12:16;18.20;;;7.93;;
84307;SDS011;74486;52.070;5.128;2024-01-07T07:14:43;15.93;;;7.95;;
84307;SDS011;74486;52.070;5.128;2024-01-07T07:17:08;15.07;;;6.97;;
84307;SDS011;74486;52.070;5.128;2024-01-07T07:19:33;13.07;;;7.47;;
84307;SDS011;74486;52.070;5.128;2024-01-07T07:21:59;15.13;;;8.15;;
84307;SDS011;74486;52.070;5.128;2024-01-07T07:24:24;18.02;;;8.82;;
84307;SDS011;74486;52.070;5.128;2024-01-07T07:26:50;15.50;;;7.80;;
84307;SDS011;74486;52.070;5.128;2024-01-07T07:29:15;17.30;;;8.55;;
84307;SDS011;74486;52.070;5.128;2024-01-07T07:31:42;15.43;;;7.88;;
84307;SDS011;74486;52.070;5.128;2024-01-07T07:34:08;17.00;;;8.07;;
84307;SDS011;74486;52.070;5.128;2024-01-07T07:36:34;16.33;;;8.80;;
84307;SDS011;74486;52.070;5.128;2024-01-07T07:38:59;17.88;;;8.45;;
84307;SDS011;74486;52.070;5.128;2024-01-07T07:41:25;15.60;;;8.10;;
84307;SDS011;74486;52.070;5.128;2024-01-07T07:43:50;15.10;;;8.18;;
84307;SDS011;74486;52.070;5.128;2024-01-07T07:46:16;18.00;;;8.98;;
84307;SDS011;74486;52.070;5.128;2024-01-07T07:48:43;14.32;;;8.07;;
84307;SDS011;74486;52.070;5.128;2024-01-07T07:51:08;15.77;;;7.70;;
84307;SDS011;74486;52.070;5.128;2024-01-07T07:53:34;14.93;;;8.13;;
84307;SDS011;74486;52.070;5.128;2024-01-07T07:55:59;15.27;;;7.55;;
84307;SDS011;74486;52.070;5.128;2024-01-07T07:58:25;13.55;;;8.00;;
84307;SDS011;74486;52.070;5.128;2024-01-07T08:00:54;11.27;;;7.68;;
84307;SDS011;74486;52.070;5.128;2024-01-07T08:03:19;17.90;;;8.63;;
84307;SDS011;74486;52.070;5.128;2024-01-07T08:05:46;14.07;;;7.53;;
84307;SDS011;74486;52.070;5.128;2024-01-07T08:08:12;13.07;;;6.90;;
84307;SDS011;74486;52.070;5.128;2024-01-07T08:10:37;11.88;;;6.38;;
84307;SDS011;74486;52.070;5.128;2024-01-07T08:13:03;14.15;;;6.97;;
84307;SDS011;74486;52.070;5.128;2024-01-07T08:15:29;16.00;;;7.32;;
84307;SDS011;74486;52.070;5.128;2024-01-07T08:17:54;11.38;;;7.18;;
84307;SDS011;74486;52.070;5.128;2024-01-07T08:20:19;14.52;;;7.95;;
84307;SDS011;74486;52.070;5.128;2024-01-07T08:22:46;16.60;;;8.02;;
84307;SDS011;74486;52.070;5.128;2024-01-07T08:25:12;13.98;;;7.55;;
84307;SDS011;74486;52.070;5.128;2024-01-07T08:27:37;14.32;;;7.68;;
84307;SDS011;74486;52.070;5.128;2024-01-07T08:30:03;12.90;;;7.85;;
84307;SDS011;74486;52.070;5.128;2024-01-07T08:32:29;15.73;;;7.93;;
84307;SDS011;74486;52.070;5.128;2024-01-07T08:34:54;13.70;;;7.13;;
84307;SDS011;74486;52.070;5.128;2024-01-07T08:37:20;15.20;;;8.43;;
84307;SDS011;74486;52.070;5.128;2024-01-07T08:39:47;15.48;;;7.60;;
84307;SDS011;74486;52.070;5.128;2024-01-07T08:42:12;16.00;;;8.30;;
84307;SDS011;74486;52.070;5.128;2024-01-07T08:44:37;11.00;;;6.90;;
84307;SDS011;74486;52.070;5.128;2024-01-07T08:47:03;13.07;;;7.80;;
84307;SDS011;74486;52.070;5.128;2024-01-07T08:49:29;15.50;;;8.35;;
84307;SDS011;74486;52.070;5.128;2024-01-07T08:51:55;13.20;;;7.90;;
84307;SDS011;74486;52.070;5.128;2024-01-07T08:54:24;13.57;;;7.93;;
84307;SDS011;74486;52.070;5.128;2024-01-07T08:56:53;13.80;;;6.93;;
84307;SDS011;74486;52.070;5.128;2024-01-07T08:59:19;16.60;;;7.30;;
84307;SDS011;74486;52.070;5.128;2024-01-07T09:01:44;13.48;;;7.35;;
84307;SDS011;74486;52.070;5.128;2024-01-07T09:04:10;13.43;;;7.82;;
84307;SDS011;74486;52.070;5.128;2024-01-07T09:06:35;15.70;;;8.32;;
84307;SDS011;74486;52.070;5.128;2024-01-07T09:09:01;13.45;;;7.00;;
84307;SDS011;74486;52.070;5.128;2024-01-07T09:11:26;13.57;;;7.55;;
84307;SDS011;74486;52.070;5.128;2024-01-07T09:13:53;13.30;;;6.88;;
84307;SDS011;74486;52.070;5.128;2024-01-07T09:16:18;12.82;;;7.25;;
84307;SDS011;74486;52.070;5.128;2024-01-07T09:18:44;11.52;;;6.45;;
84307;SDS011;74486;52.070;5.128;2024-01-07T09:21:09;11.32;;;7.18;;
84307;SDS011;74486;52.070;5.128;2024-01-07T09:23:35;12.98;;;7.55;;
84307;SDS011;74486;52.070;5.128;2024-01-07T09:26:00;10.52;;;6.22;;
84307;SDS011;74486;52.070;5.128;2024-01-07T09:28:26;10.70;;;6.15;;
84307;SDS011;74486;52.070;5.128;2024-01-07T09:30:53;9.88;;;6.65;;
84307;SDS011;74486;52.070;5.128;2024-01-07T09:33:18;10.75;;;6.38;;
84307;SDS011;74486;52.070;5.128;2024-01-07T09:35:44;10.80;;;6.13;;
84307;SDS011;74486;52.070;5.128;2024-01-07T09:38:09;10.43;;;6.18;;
84307;SDS011;74486;52.070;5.128;2024-01-07T09:40:35;10.70;;;6.78;;
84307;SDS011;74486;52.070;5.128;2024-01-07T09:43:03;11.75;;;6.82;;
84307;SDS011;74486;52.070;5.128;2024-01-07T09:45:28;11.75;;;6.45;;
84307;SDS011;74486;52.070;5.128;2024-01-07T09:47:56;11.93;;;7.00;;
84307;SDS011;74486;52.070;5.128;2024-01-07T09:50:21;12.75;;;6.50;;
84307;SDS011;74486;52.070;5.128;2024-01-07T09:52:47;14.45;;;7.03;;
84307;SDS011;74486;52.070;5.128;2024-01-07T09:55:16;11.45;;;6.72;;
84307;SDS011;74486;52.070;5.128;2024-01-07T09:57:47;12.65;;;7.30;;
84307;SDS011;74486;52.070;5.128;2024-01-07T10:00:13;11.00;;;6.22;;
84307;SDS011;74486;52.070;5.128;2024-01-07T10:02:38;11.40;;;6.53;;
84307;SDS011;74486;52.070;5.128;2024-01-07T10:05:06;14.02;;;6.68;;
84307;SDS011;74486;52.070;5.128;2024-01-07T10:07:32;13.60;;;6.55;;
84307;SDS011;74486;52.070;5.128;2024-01-07T10:09:57;12.13;;;6.93;;
84307;SDS011;74486;52.070;5.128;2024-01-07T10:12:23;10.18;;;6.57;;
84307;SDS011;74486;52.070;5.128;2024-01-07T10:14:48;11.52;;;6.20;;
84307;SDS011;74486;52.070;5.128;2024-01-07T10:17:14;10.68;;;6.40;;
84307;SDS011;74486;52.070;5.128;2024-01-07T10:19:40;10.02;;;6.20;;
84307;SDS011;74486;52.070;5.128;2024-01-07T10:22:11;11.05;;;6.18;;
84307;SDS011;74486;52.070;5.128;2024-01-07T10:24:38;12.85;;;7.10;;
84307;SDS011;74486;52.070;5.128;2024-01-07T10:27:04;11.80;;;6.28;;
84307;SDS011;74486;52.070;5.128;2024-01-07T10:29:30;10.63;;;5.45;;
84307;SDS011;74486;52.070;5.128;2024-01-07T10:31:56;11.27;;;5.78;;
84307;SDS011;74486;52.070;5.128;2024-01-07T10:34:22;10.30;;;5.32;;
84307;SDS011;74486;52.070;5.128;2024-01-07T10:36:49;10.25;;;4.82;;
84307;SDS011;74486;52.070;5.128;2024-01-07T10:39:17;9.68;;;5.20;;
84307;SDS011;74486;52.070;5.128;2024-01-07T10:41:42;7.30;;;4.43;;
84307;SDS011;74486;52.070;5.128;2024-01-07T10:44:10;6.78;;;3.92;;
84307;SDS011;74486;52.070;5.128;2024-01-07T10:46:35;7.60;;;4.13;;
84307;SDS011;74486;52.070;5.128;2024-01-07T10:49:04;7.93;;;3.75;;
84307;SDS011;74486;52.070;5.128;2024-01-07T10:51:33;7.90;;;4.03;;
84307;SDS011;74486;52.070;5.128;2024-01-07T10:53:59;7.13;;;3.92;;
84307;SDS011;74486;52.070;5.128;2024-01-07T10:56:30;6.93;;;3.72;;
84307;SDS011;74486;52.070;5.128;2024-01-07T10:59:01;5.43;;;3.33;;
84307;SDS011;74486;52.070;5.128;2024-01-07T11:01:27;8.50;;;3.13;;
84307;SDS011;74486;52.070;5.128;2024-01-07T11:03:55;7.15;;;3.47;;
84307;SDS011;74486;52.070;5.128;2024-01-07T11:06:27;5.68;;;3.65;;
84307;SDS011;74486;52.070;5.128;2024-01-07T11:09:12;5.45;;;3.33;;
84307;SDS011;74486;52.070;5.128;2024-01-07T11:11:45;5.50;;;2.80;;
84307;SDS011;74486;52.070;5.128;2024-01-07T11:17:02;5.45;;;3.47;;
84307;SDS011;74486;52.070;5.128;2024-01-07T11:19:27;4.22;;;2.45;;
84307;SDS011;74486;52.070;5.128;2024-01-07T11:21:54;5.18;;;2.40;;
84307;SDS011;74486;52.070;5.128;2024-01-07T11:24:50;6.03;;;3.15;;
84307;SDS011;74486;52.070;5.128;2024-01-07T11:27:17;5.57;;;2.60;;
84307;SDS011;74486;52.070;5.128;2024-01-07T11:29:43;6.95;;;2.80;;
84307;SDS011;74486;52.070;5.128;2024-01-07T11:32:12;4.90;;;2.53;;
84307;SDS011;74486;52.070;5.128;2024-01-07T11:34:38;3.78;;;2.53;;
84307;SDS011;74486;52.070;5.128;2024-01-07T11:37:04;4.13;;;2.63;;
84307;SDS011;74486;52.070;5.128;2024-01-07T11:39:34;3.47;;;2.75;;
84307;SDS011;74486;52.070;5.128;2024-01-07T11:42:00;3.53;;;2.83;;
84307;SDS011;74486;52.070;5.128;2024-01-07T11:44:27;4.20;;;2.58;;
84307;SDS011;74486;52.070;5.128;2024-01-07T11:46:53;4.85;;;2.22;;
84307;SDS011;74486;52.070;5.128;2024-01-07T11:49:18;3.70;;;2.47;;
84307;SDS011;74486;52.070;5.128;2024-01-07T11:51:43;3.83;;;2.47;;
84307;SDS011;74486;52.070;5.128;2024-01-07T11:54:09;3.70;;;2.17;;
84307;SDS011;74486;52.070;5.128;2024-01-07T11:56:35;7.10;;;2.42;;
84307;SDS011;74486;52.070;5.128;2024-01-07T11:59:00;4.13;;;2.45;;
84307;SDS011;74486;52.070;5.128;2024-01-07T12:01:27;3.05;;;1.95;;
84307;SDS011;74486;52.070;5.128;2024-01-07T12:03:54;4.32;;;2.05;;
84307;SDS011;74486;52.070;5.128;2024-01-07T12:06:20;3.08;;;1.65;;
84307;SDS011;74486;52.070;5.128;2024-01-07T12:08:45;3.90;;;1.90;;
84307;SDS011;74486;52.070;5.128;2024-01-07T12:11:11;3.70;;;2.08;;
84307;SDS011;74486;52.070;5.128;2024-01-07T12:13:37;3.08;;;2.20;;
84307;SDS011;74486;52.070;5.128;2024-01-07T12:16:04;2.90;;;2.00;;
84307;SDS011;74486;52.070;5.128;2024-01-07T12:18:31;6.25;;;2.00;;
84307;SDS011;74486;52.070;5.128;2024-01-07T12:20:58;4.70;;;1.70;;
84307;SDS011;74486;52.070;5.128;2024-01-07T12:23:24;4.45;;;2.00;;
84307;SDS011;74486;52.070;5.128;2024-01-07T12:25:50;3.05;;;1.70;;
84307;SDS011;74486;52.070;5.128;2024-01-07T12:28:16;2.72;;;1.50;;
84307;SDS011;74486;52.070;5.128;2024-01-07T12:30:42;2.28;;;1.42;;
84307;SDS011;74486;52.070;5.128;2024-01-07T12:33:07;2.25;;;1.52;;
84307;SDS011;74486;52.070;5.128;2024-01-07T12:35:35;2.25;;;1.42;;
84307;SDS011;74486;52.070;5.128;2024-01-07T12:38:01;2.28;;;1.40;;
84307;SDS011;74486;52.070;5.128;2024-01-07T12:40:27;3.08;;;1.70;;
84307;SDS011;74486;52.070;5.128;2024-01-07T12:42:52;1.90;;;1.30;;
84307;SDS011;74486;52.070;5.128;2024-01-07T12:45:18;4.53;;;1.73;;
84307;SDS011;74486;52.070;5.128;2024-01-07T12:47:44;3.17;;;2.03;;
84307;SDS011;74486;52.070;5.128;2024-01-07T12:50:12;4.15;;;1.70;;
84307;SDS011;74486;52.070;5.128;2024-01-07T12:52:40;3.05;;;1.50;;
84307;SDS011;74486;52.070;5.128;2024-01-07T12:55:06;3.70;;;1.77;;
84307;SDS011;74486;52.070;5.128;2024-01-07T12:57:33;2.92;;;1.65;;
84307;SDS011;74486;52.070;5.128;2024-01-07T12:59:58;3.63;;;2.50;;
84307;SDS011;74486;52.070;5.128;2024-01-07T13:02:24;2.75;;;1.75;;
84307;SDS011;74486;52.070;5.128;2024-01-07T13:04:49;2.42;;;1.17;;
84307;SDS011;74486;52.070;5.128;2024-01-07T13:07:15;2.80;;;1.50;;
84307;SDS011;74486;52.070;5.128;2024-01-07T13:09:42;2.72;;;1.55;;
84307;SDS011;74486;52.070;5.128;2024-01-07T13:12:07;3.10;;;1.00;;
84307;SDS011;74486;52.070;5.128;2024-01-07T13:14:33;1.92;;;1.50;;
84307;SDS011;74486;52.070;5.128;2024-01-07T13:16:58;1.55;;;1.00;;
84307;SDS011;74486;52.070;5.128;2024-01-07T13:19:24;3.00;;;1.15;;
84307;SDS011;74486;52.070;5.128;2024-01-07T13:21:49;1.50;;;1.20;;
84307;SDS011;74486;52.070;5.128;2024-01-07T13:24:15;2.95;;;1.17;;
84307;SDS011;74486;52.070;5.128;2024-01-07T13:26:42;1.45;;;0.93;;
84307;SDS011;74486;52.070;5.128;2024-01-07T13:29:07;2.53;;;1.20;;
84307;SDS011;74486;52.070;5.128;2024-01-07T13:31:33;1.88;;;0.98;;
84307;SDS011;74486;52.070;5.128;2024-01-07T13:33:58;1.33;;;1.02;;
84307;SDS011;74486;52.070;5.128;2024-01-07T13:36:24;1.90;;;0.80;;
84307;SDS011;74486;52.070;5.128;2024-01-07T13:38:49;2.72;;;1.00;;
84307;SDS011;74486;52.070;5.128;2024-01-07T13:41:15;2.97;;;1.05;;
84307;SDS011;74486;52.070;5.128;2024-01-07T13:43:42;1.55;;;0.95;;
84307;SDS011;74486;52.070;5.128;2024-01-07T13:46:07;1.42;;;0.93;;
84307;SDS011;74486;52.070;5.128;2024-01-07T13:48:33;1.42;;;0.95;;
84307;SDS011;74486;52.070;5.128;2024-01-07T13:50:58;1.55;;;0.90;;
84307;SDS011;74486;52.070;5.128;2024-01-07T13:53:24;2.28;;;1.10;;
84307;SDS011;74486;52.070;5.128;2024-01-07T13:55:49;2.88;;;1.00;;
84307;SDS011;74486;52.070;5.128;2024-01-07T13:58:14;2.47;;;1.10;;
84307;SDS011;74486;52.070;5.128;2024-01-07T14:00:41;1.95;;;0.80;;
84307;SDS011;74486;52.070;5.128;2024-01-07T14:03:07;3.63;;;1.02;;
84307;SDS011;74486;52.070;5.128;2024-01-07T14:05:32;1.40;;;0.95;;
84307;SDS011;74486;52.070;5.128;2024-01-07T14:07:58;1.98;;;0.90;;
84307;SDS011;74486;52.070;5.128;2024-01-07T14:10:23;1.63;;;0.95;;
84307;SDS011;74486;52.070;5.128;2024-01-07T14:12:48;4.10;;;1.08;;
84307;SDS011;74486;52.070;5.128;2024-01-07T14:15:14;1.38;;;0.93;;
84307;SDS011;74486;52.070;5.128;2024-01-07T14:17:41;1.02;;;0.60;;
84307;SDS011;74486;52.070;5.128;2024-01-07T14:20:06;0.98;;;0.80;;
84307;SDS011;74486;52.070;5.128;2024-01-07T14:22:32;2.22;;;1.27;;
84307;SDS011;74486;52.070;5.128;2024-01-07T14:24:58;1.70;;;0.93;;
84307;SDS011;74486;52.070;5.128;2024-01-07T14:27:23;2.13;;;1.45;;
84307;SDS011;74486;52.070;5.128;2024-01-07T14:29:49;3.53;;;0.90;;
84307;SDS011;74486;52.070;5.128;2024-01-07T14:32:14;2.92;;;0.82;;